sensor_id;sensor_type;location;lat;lon;timestamp;P1;durP1;ratioP1;P2;durP2;ratioP2
5967;SDS011;3010;51.028;4.170;2023-05-19T00:01:52;8.13;;;7.10;;
5967;SDS011;3010;51.028;4.170;2023-05-19T00:04:19;10.50;;;7.10;;
5967;SDS011;3010;51.028;4.170;2023-05-19T00:06:47;14.97;;;7.13;;
5967;SDS011;3010;51.028;4.170;2023-05-19T00:09:12;10.73;;;7.37;;
5967;SDS011;3010;51.028;4.170;2023-05-19T00:11:39;10.73;;;6.87;;
5967;SDS011;3010;51.028;4.170;2023-05-19T00:14:06;11.57;;;7.90;;
5967;SDS011;3010;51.028;4.170;2023-05-19T00:16:32;11.03;;;8.83;;
5967;SDS011;3010;51.028;4.170;2023-05-19T00:18:59;12.25;;;9.40;;
5967;SDS011;3010;51.028;4.170;2023-05-19T00:21:25;9.93;;;7.57;;
5967;SDS011;3010;51.028;4.170;2023-05-19T00:23:53;8.73;;;7.63;;
5967;SDS011;3010;51.028;4.170;2023-05-19T00:26:18;8.30;;;7.47;;
5967;SDS011;3010;51.028;4.170;2023-05-19T00:28:45;14.60;;;9.00;;
5967;SDS011;3010;51.028;4.170;2023-05-19T00:31:12;11.17;;;8.40;;
5967;SDS011;3010;51.028;4.170;2023-05-19T00:33:38;9.90;;;8.03;;
5967;SDS011;3010;51.028;4.170;2023-05-19T00:36:05;9.67;;;7.60;;
5967;SDS011;3010;51.028;4.170;2023-05-19T00:38:32;9.17;;;7.37;;
5967;SDS011;3010;51.028;4.170;2023-05-19T00:40:58;10.27;;;9.23;;
5967;SDS011;3010;51.028;4.170;2023-05-19T00:43:24;11.87;;;8.07;;
5967;SDS011;3010;51.028;4.170;2023-05-19T00:45:51;9.87;;;8.87;;
5967;SDS011;3010;51.028;4.170;2023-05-19T00:48:18;10.10;;;9.07;;
5967;SDS011;3010;51.028;4.170;2023-05-19T00:50:44;11.70;;;9.57;;
5967;SDS011;3010;51.028;4.170;2023-05-19T00:53:12;11.27;;;8.50;;
5967;SDS011;3010;51.028;4.170;2023-05-19T00:55:37;9.53;;;7.53;;
5967;SDS011;3010;51.028;4.170;2023-05-19T00:58:04;10.67;;;7.47;;
5967;SDS011;3010;51.028;4.170;2023-05-19T01:00:31;9.50;;;8.17;;
5967;SDS011;3010;51.028;4.170;2023-05-19T01:02:57;8.40;;;7.57;;
5967;SDS011;3010;51.028;4.170;2023-05-19T01:05:24;11.43;;;9.17;;
5967;SDS011;3010;51.028;4.170;2023-05-19T01:07:50;14.47;;;8.10;;
5967;SDS011;3010;51.028;4.170;2023-05-19T01:10:17;10.70;;;8.30;;
5967;SDS011;3010;51.028;4.170;2023-05-19T01:12:43;9.67;;;8.63;;
5967;SDS011;3010;51.028;4.170;2023-05-19T01:15:10;11.95;;;9.70;;
5967;SDS011;3010;51.028;4.170;2023-05-19T01:17:40;8.97;;;7.63;;
5967;SDS011;3010;51.028;4.170;2023-05-19T01:20:23;13.03;;;8.40;;
5967;SDS011;3010;51.028;4.170;2023-05-19T01:23:03;11.07;;;7.63;;
5967;SDS011;3010;51.028;4.170;2023-05-19T01:28:31;9.13;;;7.03;;
5967;SDS011;3010;51.028;4.170;2023-05-19T01:30:59;12.03;;;7.83;;
5967;SDS011;3010;51.028;4.170;2023-05-19T01:33:27;9.63;;;7.50;;
5967;SDS011;3010;51.028;4.170;2023-05-19T01:35:52;12.30;;;8.10;;
5967;SDS011;3010;51.028;4.170;2023-05-19T01:38:19;8.77;;;7.67;;
5967;SDS011;3010;51.028;4.170;2023-05-19T01:40:46;10.73;;;8.37;;
5967;SDS011;3010;51.028;4.170;2023-05-19T01:43:14;12.13;;;8.63;;
5967;SDS011;3010;51.028;4.170;2023-05-19T01:45:38;10.50;;;8.00;;
5967;SDS011;3010;51.028;4.170;2023-05-19T01:48:05;8.73;;;7.77;;
5967;SDS011;3010;51.028;4.170;2023-05-19T01:50:32;11.60;;;8.63;;
5967;SDS011;3010;51.028;4.170;2023-05-19T01:52:59;13.37;;;8.43;;
5967;SDS011;3010;51.028;4.170;2023-05-19T01:55:25;9.50;;;8.50;;
5967;SDS011;3010;51.028;4.170;2023-05-19T02:00:41;8.87;;;7.90;;
5967;SDS011;3010;51.028;4.170;2023-05-19T02:03:22;10.57;;;8.80;;
5967;SDS011;3010;51.028;4.170;2023-05-19T02:08:41;10.73;;;9.63;;
5967;SDS011;3010;51.028;4.170;2023-05-19T02:11:13;10.60;;;8.93;;
5967;SDS011;3010;51.028;4.170;2023-05-19T02:13:36;10.43;;;8.10;;
5967;SDS011;3010;51.028;4.170;2023-05-19T02:16:03;12.37;;;7.90;;
5967;SDS011;3010;51.028;4.170;2023-05-19T02:18:30;9.30;;;8.13;;
5967;SDS011;3010;51.028;4.170;2023-05-19T02:20:56;9.00;;;7.80;;
5967;SDS011;3010;51.028;4.170;2023-05-19T02:23:22;14.90;;;8.77;;
5967;SDS011;3010;51.028;4.170;2023-05-19T02:25:49;11.37;;;8.33;;
5967;SDS011;3010;51.028;4.170;2023-05-19T02:28:15;9.40;;;8.40;;
5967;SDS011;3010;51.028;4.170;2023-05-19T02:30:42;17.03;;;10.80;;
5967;SDS011;3010;51.028;4.170;2023-05-19T02:33:09;10.80;;;9.33;;
5967;SDS011;3010;51.028;4.170;2023-05-19T02:35:35;11.43;;;9.13;;
5967;SDS011;3010;51.028;4.170;2023-05-19T02:38:02;11.00;;;8.67;;
5967;SDS011;3010;51.028;4.170;2023-05-19T02:40:29;10.53;;;8.83;;
5967;SDS011;3010;51.028;4.170;2023-05-19T02:42:55;15.97;;;9.20;;
5967;SDS011;3010;51.028;4.170;2023-05-19T02:45:21;12.73;;;8.67;;
5967;SDS011;3010;51.028;4.170;2023-05-19T02:47:48;14.90;;;10.10;;
5967;SDS011;3010;51.028;4.170;2023-05-19T02:50:15;14.03;;;9.17;;
5967;SDS011;3010;51.028;4.170;2023-05-19T02:52:41;13.68;;;10.60;;
5967;SDS011;3010;51.028;4.170;2023-05-19T02:55:08;13.20;;;9.40;;
5967;SDS011;3010;51.028;4.170;2023-05-19T02:57:35;15.13;;;10.40;;
5967;SDS011;3010;51.028;4.170;2023-05-19T03:00:01;11.57;;;8.43;;
5967;SDS011;3010;51.028;4.170;2023-05-19T03:02:28;15.53;;;8.47;;
5967;SDS011;3010;51.028;4.170;2023-05-19T03:04:54;11.43;;;7.90;;
5967;SDS011;3010;51.028;4.170;2023-05-19T03:07:21;11.10;;;8.43;;
5967;SDS011;3010;51.028;4.170;2023-05-19T03:09:47;11.27;;;7.60;;
5967;SDS011;3010;51.028;4.170;2023-05-19T03:12:14;9.03;;;7.80;;
5967;SDS011;3010;51.028;4.170;2023-05-19T03:14:40;9.37;;;8.40;;
5967;SDS011;3010;51.028;4.170;2023-05-19T03:17:07;10.73;;;7.90;;
5967;SDS011;3010;51.028;4.170;2023-05-19T03:19:34;8.90;;;7.87;;
5967;SDS011;3010;51.028;4.170;2023-05-19T03:22:00;10.53;;;8.20;;
5967;SDS011;3010;51.028;4.170;2023-05-19T03:24:27;10.00;;;8.50;;
5967;SDS011;3010;51.028;4.170;2023-05-19T03:26:53;17.17;;;10.67;;
5967;SDS011;3010;51.028;4.170;2023-05-19T03:29:20;13.23;;;10.45;;
5967;SDS011;3010;51.028;4.170;2023-05-19T03:31:47;13.45;;;9.95;;
5967;SDS011;3010;51.028;4.170;2023-05-19T03:34:13;13.57;;;8.90;;
5967;SDS011;3010;51.028;4.170;2023-05-19T03:36:40;8.90;;;8.07;;
5967;SDS011;3010;51.028;4.170;2023-05-19T03:39:06;9.73;;;7.67;;
5967;SDS011;3010;51.028;4.170;2023-05-19T03:41:33;12.13;;;8.10;;
5967;SDS011;3010;51.028;4.170;2023-05-19T03:43:59;11.17;;;8.30;;
5967;SDS011;3010;51.028;4.170;2023-05-19T03:46:26;10.83;;;8.23;;
5967;SDS011;3010;51.028;4.170;2023-05-19T03:48:53;9.00;;;8.10;;
5967;SDS011;3010;51.028;4.170;2023-05-19T03:51:19;12.87;;;10.53;;
5967;SDS011;3010;51.028;4.170;2023-05-19T03:53:46;12.80;;;9.90;;
5967;SDS011;3010;51.028;4.170;2023-05-19T03:56:12;9.03;;;8.20;;
5967;SDS011;3010;51.028;4.170;2023-05-19T03:58:39;13.07;;;8.73;;
5967;SDS011;3010;51.028;4.170;2023-05-19T04:01:09;13.90;;;7.30;;
5967;SDS011;3010;51.028;4.170;2023-05-19T04:03:35;11.87;;;7.10;;
5967;SDS011;3010;51.028;4.170;2023-05-19T04:06:02;10.57;;;7.70;;
5967;SDS011;3010;51.028;4.170;2023-05-19T04:08:28;10.63;;;7.07;;
5967;SDS011;3010;51.028;4.170;2023-05-19T04:10:55;8.73;;;7.37;;
5967;SDS011;3010;51.028;4.170;2023-05-19T04:13:21;8.50;;;6.87;;
5967;SDS011;3010;51.028;4.170;2023-05-19T04:15:48;10.43;;;7.80;;
5967;SDS011;3010;51.028;4.170;2023-05-19T04:18:14;11.57;;;9.37;;
5967;SDS011;3010;51.028;4.170;2023-05-19T04:20:41;11.93;;;10.10;;
5967;SDS011;3010;51.028;4.170;2023-05-19T04:23:07;15.20;;;10.93;;
5967;SDS011;3010;51.028;4.170;2023-05-19T04:25:34;12.47;;;8.97;;
5967;SDS011;3010;51.028;4.170;2023-05-19T04:28:01;11.60;;;8.60;;
5967;SDS011;3010;51.028;4.170;2023-05-19T04:30:27;12.20;;;8.53;;
5967;SDS011;3010;51.028;4.170;2023-05-19T04:32:54;10.13;;;9.13;;
5967;SDS011;3010;51.028;4.170;2023-05-19T04:35:20;14.00;;;10.83;;
5967;SDS011;3010;51.028;4.170;2023-05-19T04:37:47;14.35;;;11.50;;
5967;SDS011;3010;51.028;4.170;2023-05-19T04:40:14;16.35;;;11.75;;
5967;SDS011;3010;51.028;4.170;2023-05-19T04:42:40;10.63;;;9.37;;
5967;SDS011;3010;51.028;4.170;2023-05-19T04:45:07;11.80;;;8.80;;
5967;SDS011;3010;51.028;4.170;2023-05-19T04:47:34;13.10;;;8.50;;
5967;SDS011;3010;51.028;4.170;2023-05-19T04:50:03;13.10;;;9.30;;
5967;SDS011;3010;51.028;4.170;2023-05-19T04:52:29;16.10;;;9.07;;
5967;SDS011;3010;51.028;4.170;2023-05-19T04:54:56;11.37;;;8.30;;
5967;SDS011;3010;51.028;4.170;2023-05-19T04:57:22;12.63;;;8.23;;
5967;SDS011;3010;51.028;4.170;2023-05-19T04:59:49;10.00;;;8.53;;
5967;SDS011;3010;51.028;4.170;2023-05-19T05:02:16;11.53;;;9.37;;
5967;SDS011;3010;51.028;4.170;2023-05-19T05:04:42;13.13;;;8.67;;
5967;SDS011;3010;51.028;4.170;2023-05-19T05:07:09;11.67;;;8.67;;
5967;SDS011;3010;51.028;4.170;2023-05-19T05:09:35;17.53;;;9.00;;
5967;SDS011;3010;51.028;4.170;2023-05-19T05:12:02;13.00;;;8.67;;
5967;SDS011;3010;51.028;4.170;2023-05-19T05:14:28;10.83;;;9.20;;
5967;SDS011;3010;51.028;4.170;2023-05-19T05:16:55;12.13;;;8.30;;
5967;SDS011;3010;51.028;4.170;2023-05-19T05:19:22;12.27;;;9.40;;
5967;SDS011;3010;51.028;4.170;2023-05-19T05:21:48;16.20;;;8.50;;
5967;SDS011;3010;51.028;4.170;2023-05-19T05:24:15;14.53;;;9.03;;
5967;SDS011;3010;51.028;4.170;2023-05-19T05:26:41;15.02;;;10.23;;
5967;SDS011;3010;51.028;4.170;2023-05-19T05:29:08;11.43;;;8.53;;
5967;SDS011;3010;51.028;4.170;2023-05-19T05:31:35;11.73;;;8.60;;
5967;SDS011;3010;51.028;4.170;2023-05-19T05:34:01;8.97;;;7.70;;
5967;SDS011;3010;51.028;4.170;2023-05-19T05:36:28;10.57;;;8.37;;
5967;SDS011;3010;51.028;4.170;2023-05-19T05:38:54;12.70;;;8.63;;
5967;SDS011;3010;51.028;4.170;2023-05-19T05:41:21;10.20;;;8.27;;
5967;SDS011;3010;51.028;4.170;2023-05-19T05:43:47;13.57;;;8.50;;
5967;SDS011;3010;51.028;4.170;2023-05-19T05:46:15;9.50;;;8.50;;
5967;SDS011;3010;51.028;4.170;2023-05-19T05:48:41;13.48;;;9.85;;
5967;SDS011;3010;51.028;4.170;2023-05-19T05:51:07;14.10;;;9.13;;
5967;SDS011;3010;51.028;4.170;2023-05-19T05:53:35;10.83;;;8.60;;
5967;SDS011;3010;51.028;4.170;2023-05-19T05:56:00;13.63;;;8.67;;
5967;SDS011;3010;51.028;4.170;2023-05-19T05:58:27;11.83;;;9.10;;
5967;SDS011;3010;51.028;4.170;2023-05-19T06:00:54;9.97;;;8.47;;
5967;SDS011;3010;51.028;4.170;2023-05-19T06:03:20;11.67;;;8.10;;
5967;SDS011;3010;51.028;4.170;2023-05-19T06:05:47;8.53;;;7.63;;
5967;SDS011;3010;51.028;4.170;2023-05-19T06:08:13;12.13;;;8.70;;
5967;SDS011;3010;51.028;4.170;2023-05-19T06:10:40;10.13;;;8.27;;
5967;SDS011;3010;51.028;4.170;2023-05-19T06:13:07;10.40;;;8.73;;
5967;SDS011;3010;51.028;4.170;2023-05-19T06:15:33;8.90;;;8.07;;
5967;SDS011;3010;51.028;4.170;2023-05-19T06:18:00;10.77;;;9.53;;
5967;SDS011;3010;51.028;4.170;2023-05-19T06:20:26;13.00;;;9.93;;
5967;SDS011;3010;51.028;4.170;2023-05-19T06:22:53;15.33;;;9.17;;
5967;SDS011;3010;51.028;4.170;2023-05-19T06:25:19;11.97;;;8.80;;
5967;SDS011;3010;51.028;4.170;2023-05-19T06:27:46;11.10;;;9.40;;
5967;SDS011;3010;51.028;4.170;2023-05-19T06:30:13;9.93;;;8.53;;
5967;SDS011;3010;51.028;4.170;2023-05-19T06:32:39;10.93;;;9.83;;
5967;SDS011;3010;51.028;4.170;2023-05-19T06:35:06;10.90;;;9.50;;
5967;SDS011;3010;51.028;4.170;2023-05-19T06:37:32;12.10;;;9.30;;
5967;SDS011;3010;51.028;4.170;2023-05-19T06:39:59;10.67;;;9.50;;
5967;SDS011;3010;51.028;4.170;2023-05-19T06:42:26;12.55;;;9.23;;
5967;SDS011;3010;51.028;4.170;2023-05-19T06:44:52;12.40;;;9.40;;
5967;SDS011;3010;51.028;4.170;2023-05-19T06:47:19;10.47;;;8.50;;
5967;SDS011;3010;51.028;4.170;2023-05-19T06:49:46;10.53;;;8.67;;
5967;SDS011;3010;51.028;4.170;2023-05-19T06:52:12;12.27;;;8.53;;
5967;SDS011;3010;51.028;4.170;2023-05-19T06:54:39;9.10;;;8.03;;
5967;SDS011;3010;51.028;4.170;2023-05-19T06:57:05;9.00;;;8.20;;
5967;SDS011;3010;51.028;4.170;2023-05-19T06:59:32;11.77;;;8.10;;
5967;SDS011;3010;51.028;4.170;2023-05-19T07:01:58;9.20;;;8.13;;
5967;SDS011;3010;51.028;4.170;2023-05-19T07:04:25;9.17;;;8.13;;
5967;SDS011;3010;51.028;4.170;2023-05-19T07:06:52;10.10;;;8.33;;
5967;SDS011;3010;51.028;4.170;2023-05-19T07:09:18;11.87;;;8.37;;
5967;SDS011;3010;51.028;4.170;2023-05-19T07:11:45;15.07;;;8.47;;
5967;SDS011;3010;51.028;4.170;2023-05-19T07:14:11;10.33;;;8.47;;
5967;SDS011;3010;51.028;4.170;2023-05-19T07:16:38;11.17;;;8.77;;
5967;SDS011;3010;51.028;4.170;2023-05-19T07:19:04;9.97;;;8.97;;
5967;SDS011;3010;51.028;4.170;2023-05-19T07:21:31;10.43;;;8.00;;
5967;SDS011;3010;51.028;4.170;2023-05-19T07:23:58;12.57;;;8.73;;
5967;SDS011;3010;51.028;4.170;2023-05-19T07:26:24;9.13;;;8.17;;
5967;SDS011;3010;51.028;4.170;2023-05-19T07:28:51;11.07;;;8.73;;
5967;SDS011;3010;51.028;4.170;2023-05-19T07:31:17;9.43;;;8.43;;
5967;SDS011;3010;51.028;4.170;2023-05-19T07:33:44;9.57;;;8.37;;
5967;SDS011;3010;51.028;4.170;2023-05-19T07:36:11;15.37;;;8.87;;
5967;SDS011;3010;51.028;4.170;2023-05-19T07:38:37;11.00;;;8.80;;
5967;SDS011;3010;51.028;4.170;2023-05-19T07:41:04;8.83;;;7.67;;
5967;SDS011;3010;51.028;4.170;2023-05-19T07:43:30;9.20;;;8.13;;
5967;SDS011;3010;51.028;4.170;2023-05-19T07:45:57;10.33;;;7.93;;
5967;SDS011;3010;51.028;4.170;2023-05-19T07:48:24;11.57;;;8.27;;
5967;SDS011;3010;51.028;4.170;2023-05-19T07:50:50;9.13;;;8.23;;
5967;SDS011;3010;51.028;4.170;2023-05-19T07:53:17;9.77;;;8.33;;
5967;SDS011;3010;51.028;4.170;2023-05-19T07:55:43;9.30;;;8.30;;
5967;SDS011;3010;51.028;4.170;2023-05-19T07:58:10;10.63;;;8.17;;
5967;SDS011;3010;51.028;4.170;2023-05-19T08:00:37;9.63;;;7.43;;
5967;SDS011;3010;51.028;4.170;2023-05-19T08:03:03;11.10;;;9.20;;
5967;SDS011;3010;51.028;4.170;2023-05-19T08:05:30;10.10;;;9.10;;
5967;SDS011;3010;51.028;4.170;2023-05-19T08:07:56;9.27;;;8.37;;
5967;SDS011;3010;51.028;4.170;2023-05-19T08:10:23;13.40;;;7.63;;
5967;SDS011;3010;51.028;4.170;2023-05-19T08:12:49;10.53;;;7.67;;
5967;SDS011;3010;51.028;4.170;2023-05-19T08:15:16;13.13;;;8.20;;
5967;SDS011;3010;51.028;4.170;2023-05-19T08:17:43;9.23;;;8.00;;
5967;SDS011;3010;51.028;4.170;2023-05-19T08:20:09;9.13;;;8.10;;
5967;SDS011;3010;51.028;4.170;2023-05-19T08:22:39;8.77;;;7.87;;
5967;SDS011;3010;51.028;4.170;2023-05-19T08:25:05;11.03;;;8.13;;
5967;SDS011;3010;51.028;4.170;2023-05-19T08:27:32;9.70;;;7.73;;
5967;SDS011;3010;51.028;4.170;2023-05-19T08:29:58;13.23;;;8.40;;
5967;SDS011;3010;51.028;4.170;2023-05-19T08:32:25;9.53;;;8.03;;
5967;SDS011;3010;51.028;4.170;2023-05-19T08:34:52;13.10;;;8.10;;
5967;SDS011;3010;51.028;4.170;2023-05-19T08:37:18;10.60;;;8.10;;
5967;SDS011;3010;51.028;4.170;2023-05-19T08:39:45;11.53;;;7.90;;
5967;SDS011;3010;51.028;4.170;2023-05-19T08:42:11;10.07;;;8.13;;
5967;SDS011;3010;51.028;4.170;2023-05-19T08:44:38;11.53;;;8.27;;
5967;SDS011;3010;51.028;4.170;2023-05-19T08:47:05;10.67;;;7.70;;
5967;SDS011;3010;51.028;4.170;2023-05-19T08:49:31;12.00;;;7.00;;
5967;SDS011;3010;51.028;4.170;2023-05-19T08:51:59;8.13;;;7.33;;
5967;SDS011;3010;51.028;4.170;2023-05-19T08:54:29;7.40;;;6.73;;
5967;SDS011;3010;51.028;4.170;2023-05-19T08:56:54;11.73;;;7.10;;
5967;SDS011;3010;51.028;4.170;2023-05-19T08:59:20;9.53;;;6.57;;
5967;SDS011;3010;51.028;4.170;2023-05-19T09:01:47;10.60;;;7.23;;
5967;SDS011;3010;51.028;4.170;2023-05-19T09:04:14;8.80;;;6.87;;
5967;SDS011;3010;51.028;4.170;2023-05-19T09:06:40;7.00;;;6.30;;
5967;SDS011;3010;51.028;4.170;2023-05-19T09:09:07;7.40;;;6.43;;
5967;SDS011;3010;51.028;4.170;2023-05-19T09:11:33;8.77;;;6.90;;
5967;SDS011;3010;51.028;4.170;2023-05-19T09:14:00;7.13;;;6.47;;
5967;SDS011;3010;51.028;4.170;2023-05-19T09:16:26;7.55;;;6.60;;
5967;SDS011;3010;51.028;4.170;2023-05-19T09:18:53;6.40;;;5.80;;
5967;SDS011;3010;51.028;4.170;2023-05-19T09:21:21;7.90;;;7.10;;
5967;SDS011;3010;51.028;4.170;2023-05-19T09:23:46;8.10;;;7.17;;
5967;SDS011;3010;51.028;4.170;2023-05-19T09:26:13;9.27;;;7.00;;
5967;SDS011;3010;51.028;4.170;2023-05-19T09:28:39;9.90;;;6.77;;
5967;SDS011;3010;51.028;4.170;2023-05-19T09:31:09;7.83;;;6.97;;
5967;SDS011;3010;51.028;4.170;2023-05-19T09:33:38;9.77;;;6.90;;
5967;SDS011;3010;51.028;4.170;2023-05-19T09:36:02;7.83;;;7.00;;
5967;SDS011;3010;51.028;4.170;2023-05-19T09:38:28;9.57;;;7.10;;
5967;SDS011;3010;51.028;4.170;2023-05-19T09:40:55;8.20;;;6.70;;
5967;SDS011;3010;51.028;4.170;2023-05-19T09:43:22;8.03;;;6.47;;
5967;SDS011;3010;51.028;4.170;2023-05-19T09:45:53;10.23;;;6.50;;
5967;SDS011;3010;51.028;4.170;2023-05-19T09:48:20;10.75;;;8.10;;
5967;SDS011;3010;51.028;4.170;2023-05-19T09:50:47;10.03;;;7.73;;
5967;SDS011;3010;51.028;4.170;2023-05-19T09:53:14;7.63;;;5.57;;
5967;SDS011;3010;51.028;4.170;2023-05-19T09:55:40;7.70;;;6.07;;
5967;SDS011;3010;51.028;4.170;2023-05-19T09:58:07;6.00;;;5.47;;
5967;SDS011;3010;51.028;4.170;2023-05-19T10:00:33;7.77;;;6.10;;
5967;SDS011;3010;51.028;4.170;2023-05-19T10:03:00;9.43;;;6.40;;
5967;SDS011;3010;51.028;4.170;2023-05-19T10:05:26;6.40;;;5.50;;
5967;SDS011;3010;51.028;4.170;2023-05-19T10:07:53;6.57;;;5.03;;
5967;SDS011;3010;51.028;4.170;2023-05-19T10:10:20;6.30;;;5.47;;
5967;SDS011;3010;51.028;4.170;2023-05-19T10:12:47;5.93;;;4.60;;
5967;SDS011;3010;51.028;4.170;2023-05-19T10:15:13;6.77;;;5.00;;
5967;SDS011;3010;51.028;4.170;2023-05-19T10:17:40;7.37;;;5.03;;
5967;SDS011;3010;51.028;4.170;2023-05-19T10:20:10;7.00;;;5.10;;
5967;SDS011;3010;51.028;4.170;2023-05-19T10:22:36;5.90;;;4.80;;
5967;SDS011;3010;51.028;4.170;2023-05-19T10:25:03;5.40;;;4.90;;
5967;SDS011;3010;51.028;4.170;2023-05-19T10:27:29;5.67;;;5.07;;
5967;SDS011;3010;51.028;4.170;2023-05-19T10:29:56;5.03;;;4.53;;
5967;SDS011;3010;51.028;4.170;2023-05-19T10:32:23;6.97;;;5.00;;
5967;SDS011;3010;51.028;4.170;2023-05-19T10:40:09;8.32;;;5.75;;
5967;SDS011;3010;51.028;4.170;2023-05-19T10:42:37;6.65;;;5.70;;
5967;SDS011;3010;51.028;4.170;2023-05-19T10:45:17;13.77;;;5.47;;
5967;SDS011;3010;51.028;4.170;2023-05-19T10:47:43;18.17;;;5.27;;
5967;SDS011;3010;51.028;4.170;2023-05-19T10:50:10;40.03;;;7.27;;
5967;SDS011;3010;51.028;4.170;2023-05-19T10:52:37;9.20;;;5.00;;
5967;SDS011;3010;51.028;4.170;2023-05-19T10:55:05;10.63;;;5.00;;
5967;SDS011;3010;51.028;4.170;2023-05-19T10:57:30;18.20;;;5.13;;
5967;SDS011;3010;51.028;4.170;2023-05-19T10:59:57;10.30;;;4.10;;
5967;SDS011;3010;51.028;4.170;2023-05-19T11:02:45;5.77;;;4.17;;
5967;SDS011;3010;51.028;4.170;2023-05-19T11:05:08;5.00;;;4.20;;
5967;SDS011;3010;51.028;4.170;2023-05-19T11:07:34;4.37;;;3.80;;
5967;SDS011;3010;51.028;4.170;2023-05-19T11:10:04;5.50;;;4.33;;
5967;SDS011;3010;51.028;4.170;2023-05-19T11:12:27;5.13;;;4.30;;
5967;SDS011;3010;51.028;4.170;2023-05-19T11:14:54;5.77;;;4.10;;
5967;SDS011;3010;51.028;4.170;2023-05-19T11:17:20;4.70;;;4.10;;
5967;SDS011;3010;51.028;4.170;2023-05-19T11:19:53;4.20;;;3.90;;
5967;SDS011;3010;51.028;4.170;2023-05-19T11:22:23;7.47;;;3.97;;
5967;SDS011;3010;51.028;4.170;2023-05-19T11:24:49;4.00;;;3.70;;
5967;SDS011;3010;51.028;4.170;2023-05-19T11:27:34;4.40;;;3.78;;
5967;SDS011;3010;51.028;4.170;2023-05-19T11:29:54;3.57;;;3.23;;
5967;SDS011;3010;51.028;4.170;2023-05-19T11:32:20;4.53;;;3.87;;
5967;SDS011;3010;51.028;4.170;2023-05-19T11:34:47;6.00;;;3.80;;
5967;SDS011;3010;51.028;4.170;2023-05-19T11:37:13;6.10;;;3.97;;
5967;SDS011;3010;51.028;4.170;2023-05-19T11:39:40;5.63;;;4.07;;
5967;SDS011;3010;51.028;4.170;2023-05-19T11:42:09;5.43;;;4.00;;
5967;SDS011;3010;51.028;4.170;2023-05-19T11:44:36;4.50;;;4.10;;
5967;SDS011;3010;51.028;4.170;2023-05-19T11:47:08;3.50;;;3.17;;
5967;SDS011;3010;51.028;4.170;2023-05-19T11:49:35;9.00;;;4.47;;
5967;SDS011;3010;51.028;4.170;2023-05-19T11:52:02;4.40;;;3.93;;
5967;SDS011;3010;51.028;4.170;2023-05-19T11:54:32;6.40;;;3.90;;
5967;SDS011;3010;51.028;4.170;2023-05-19T11:57:01;4.60;;;4.20;;
5967;SDS011;3010;51.028;4.170;2023-05-19T11:59:31;6.10;;;3.70;;
5967;SDS011;3010;51.028;4.170;2023-05-19T12:02:14;4.77;;;3.97;;
5967;SDS011;3010;51.028;4.170;2023-05-19T12:04:29;4.63;;;4.20;;
5967;SDS011;3010;51.028;4.170;2023-05-19T12:06:55;6.70;;;4.50;;
5967;SDS011;3010;51.028;4.170;2023-05-19T12:09:22;8.33;;;4.40;;
5967;SDS011;3010;51.028;4.170;2023-05-19T12:11:49;4.90;;;4.33;;
5967;SDS011;3010;51.028;4.170;2023-05-19T12:14:15;4.33;;;4.03;;
5967;SDS011;3010;51.028;4.170;2023-05-19T12:16:41;6.27;;;3.90;;
5967;SDS011;3010;51.028;4.170;2023-05-19T12:19:08;6.40;;;4.20;;
5967;SDS011;3010;51.028;4.170;2023-05-19T12:21:35;4.83;;;4.30;;
5967;SDS011;3010;51.028;4.170;2023-05-19T12:24:01;4.77;;;4.13;;
5967;SDS011;3010;51.028;4.170;2023-05-19T12:26:28;4.20;;;3.90;;
5967;SDS011;3010;51.028;4.170;2023-05-19T12:28:54;5.43;;;4.40;;
5967;SDS011;3010;51.028;4.170;2023-05-19T12:31:21;5.57;;;4.37;;
5967;SDS011;3010;51.028;4.170;2023-05-19T12:33:48;6.10;;;5.23;;
5967;SDS011;3010;51.028;4.170;2023-05-19T12:36:17;4.97;;;4.50;;
5967;SDS011;3010;51.028;4.170;2023-05-19T12:38:44;6.83;;;4.80;;
5967;SDS011;3010;51.028;4.170;2023-05-19T12:41:10;5.83;;;4.10;;
5967;SDS011;3010;51.028;4.170;2023-05-19T12:43:39;4.67;;;4.17;;
5967;SDS011;3010;51.028;4.170;2023-05-19T12:46:09;5.70;;;4.30;;
5967;SDS011;3010;51.028;4.170;2023-05-19T12:48:39;4.00;;;3.70;;
5967;SDS011;3010;51.028;4.170;2023-05-19T12:51:04;6.57;;;3.87;;
5967;SDS011;3010;51.028;4.170;2023-05-19T12:53:31;3.63;;;3.43;;
5967;SDS011;3010;51.028;4.170;2023-05-19T12:55:58;4.10;;;3.70;;
5967;SDS011;3010;51.028;4.170;2023-05-19T12:58:24;3.93;;;3.63;;
5967;SDS011;3010;51.028;4.170;2023-05-19T13:00:51;4.10;;;3.70;;
5967;SDS011;3010;51.028;4.170;2023-05-19T13:03:18;6.47;;;3.20;;
5967;SDS011;3010;51.028;4.170;2023-05-19T13:05:45;3.00;;;2.80;;
5967;SDS011;3010;51.028;4.170;2023-05-19T13:08:14;3.50;;;3.27;;
5967;SDS011;3010;51.028;4.170;2023-05-19T13:10:41;5.68;;;3.72;;
5967;SDS011;3010;51.028;4.170;2023-05-19T13:13:07;3.60;;;3.30;;
5967;SDS011;3010;51.028;4.170;2023-05-19T13:15:36;4.93;;;3.67;;
5967;SDS011;3010;51.028;4.170;2023-05-19T13:18:00;4.33;;;4.03;;
5967;SDS011;3010;51.028;4.170;2023-05-19T13:20:26;3.93;;;3.53;;
5967;SDS011;3010;51.028;4.170;2023-05-19T13:22:53;4.30;;;3.60;;
5967;SDS011;3010;51.028;4.170;2023-05-19T13:25:19;3.83;;;3.13;;
5967;SDS011;3010;51.028;4.170;2023-05-19T13:27:46;4.57;;;3.70;;
5967;SDS011;3010;51.028;4.170;2023-05-19T13:30:13;4.23;;;3.23;;
5967;SDS011;3010;51.028;4.170;2023-05-19T13:32:39;6.17;;;4.17;;
5967;SDS011;3010;51.028;4.170;2023-05-19T13:35:06;3.70;;;3.40;;
5967;SDS011;3010;51.028;4.170;2023-05-19T13:37:32;4.22;;;3.58;;
5967;SDS011;3010;51.028;4.170;2023-05-19T13:39:59;6.97;;;3.83;;
5967;SDS011;3010;51.028;4.170;2023-05-19T13:42:26;3.77;;;3.50;;
5967;SDS011;3010;51.028;4.170;2023-05-19T13:44:55;4.77;;;4.37;;
5967;SDS011;3010;51.028;4.170;2023-05-19T13:47:22;4.10;;;3.80;;
5967;SDS011;3010;51.028;4.170;2023-05-19T13:49:49;4.80;;;4.30;;
5967;SDS011;3010;51.028;4.170;2023-05-19T13:52:15;4.47;;;3.63;;
5967;SDS011;3010;51.028;4.170;2023-05-19T13:54:42;4.07;;;3.43;;
5967;SDS011;3010;51.028;4.170;2023-05-19T13:57:08;4.07;;;3.67;;
5967;SDS011;3010;51.028;4.170;2023-05-19T13:59:35;5.50;;;3.33;;
5967;SDS011;3010;51.028;4.170;2023-05-19T14:02:01;3.47;;;3.23;;
5967;SDS011;3010;51.028;4.170;2023-05-19T14:04:28;5.17;;;3.17;;
5967;SDS011;3010;51.028;4.170;2023-05-19T14:06:55;3.83;;;2.93;;
5967;SDS011;3010;51.028;4.170;2023-05-19T14:09:21;3.43;;;3.00;;
5967;SDS011;3010;51.028;4.170;2023-05-19T14:11:48;5.18;;;3.12;;
5967;SDS011;3010;51.028;4.170;2023-05-19T14:14:14;4.53;;;2.93;;
5967;SDS011;3010;51.028;4.170;2023-05-19T14:16:41;3.87;;;3.07;;
5967;SDS011;3010;51.028;4.170;2023-05-19T14:19:08;5.00;;;3.20;;
5967;SDS011;3010;51.028;4.170;2023-05-19T14:21:34;4.33;;;2.93;;
5967;SDS011;3010;51.028;4.170;2023-05-19T14:24:01;3.57;;;3.13;;
5967;SDS011;3010;51.028;4.170;2023-05-19T14:26:27;2.87;;;2.67;;
5967;SDS011;3010;51.028;4.170;2023-05-19T14:28:54;3.42;;;2.92;;
5967;SDS011;3010;51.028;4.170;2023-05-19T14:31:20;3.67;;;2.93;;
5967;SDS011;3010;51.028;4.170;2023-05-19T14:33:47;3.65;;;3.28;;
5967;SDS011;3010;51.028;4.170;2023-05-19T14:36:14;3.63;;;3.17;;
5967;SDS011;3010;51.028;4.170;2023-05-19T14:38:40;4.70;;;3.10;;
5967;SDS011;3010;51.028;4.170;2023-05-19T14:41:07;2.47;;;2.37;;
5967;SDS011;3010;51.028;4.170;2023-05-19T14:43:33;2.73;;;2.43;;
5967;SDS011;3010;51.028;4.170;2023-05-19T14:46:00;5.03;;;3.13;;
5967;SDS011;3010;51.028;4.170;2023-05-19T14:48:27;3.03;;;2.83;;
5967;SDS011;3010;51.028;4.170;2023-05-19T14:50:53;2.57;;;2.40;;
5967;SDS011;3010;51.028;4.170;2023-05-19T14:53:20;6.30;;;2.80;;
5967;SDS011;3010;51.028;4.170;2023-05-19T14:55:46;3.17;;;2.58;;
5967;SDS011;3010;51.028;4.170;2023-05-19T14:58:13;3.00;;;2.50;;
5967;SDS011;3010;51.028;4.170;2023-05-19T15:00:39;3.70;;;3.22;;
5967;SDS011;3010;51.028;4.170;2023-05-19T15:03:06;3.63;;;2.70;;
5967;SDS011;3010;51.028;4.170;2023-05-19T15:05:33;6.18;;;2.75;;
5967;SDS011;3010;51.028;4.170;2023-05-19T15:07:59;6.87;;;2.80;;
5967;SDS011;3010;51.028;4.170;2023-05-19T15:10:26;3.00;;;2.77;;
5967;SDS011;3010;51.028;4.170;2023-05-19T15:12:52;4.17;;;3.13;;
5967;SDS011;3010;51.028;4.170;2023-05-19T15:15:19;3.57;;;2.60;;
5967;SDS011;3010;51.028;4.170;2023-05-19T15:17:46;3.20;;;2.80;;
5967;SDS011;3010;51.028;4.170;2023-05-19T15:20:12;3.60;;;2.70;;